createdAt,value
2018-01-25T00:01:46.541Z,1.10
2018-01-25T00:04:15.573Z,1.05
2018-01-25T00:06:44.199Z,1.10
2018-01-25T00:09:12.373Z,1.10
2018-01-25T00:11:40.553Z,1.10
2018-01-25T00:14:08.748Z,2.25
2018-01-25T00:16:37.725Z,0.98
2018-01-25T00:19:05.895Z,0.80
2018-01-25T00:21:34.072Z,1.75
2018-01-25T00:24:02.342Z,1.00
2018-01-25T00:26:30.637Z,1.05
2018-01-25T00:28:59.757Z,1.00
2018-01-25T00:34:02.419Z,1.20
2018-01-25T00:36:30.716Z,0.90
2018-01-25T00:38:58.874Z,1.10
2018-01-25T00:41:27.241Z,1.10
2018-01-25T00:43:56.182Z,1.20
2018-01-25T00:46:24.369Z,0.90
2018-01-25T00:48:52.563Z,0.88
2018-01-25T00:51:20.728Z,1.10
2018-01-25T00:53:48.894Z,0.90
2018-01-25T00:56:17.131Z,0.90
2018-01-25T00:58:45.304Z,1.00
2018-01-25T01:01:13.463Z,0.95
2018-01-25T01:03:42.385Z,1.10
2018-01-25T01:06:10.640Z,1.52
2018-01-25T01:08:38.900Z,1.45
2018-01-25T01:11:07.100Z,0.95
2018-01-25T01:13:36.271Z,0.90
2018-01-25T01:16:05.311Z,1.45
2018-01-25T01:18:33.488Z,0.93
2018-01-25T01:21:01.782Z,0.80
2018-01-25T01:23:29.956Z,1.23
2018-01-25T01:25:58.143Z,1.00
2018-01-25T01:31:01.531Z,0.93
2018-01-25T01:33:29.749Z,0.90
2018-01-25T01:35:57.916Z,1.98
2018-01-25T01:38:26.860Z,0.88
2018-01-25T01:40:55.014Z,0.88
2018-01-25T01:43:23.279Z,0.95
2018-01-25T01:45:51.595Z,2.85
2018-01-25T01:48:19.794Z,1.00
2018-01-25T01:50:48.721Z,0.90
2018-01-25T01:53:16.892Z,0.90
2018-01-25T01:55:45.077Z,0.90
2018-01-25T01:58:13.250Z,1.00
2018-01-25T02:00:41.435Z,1.10
2018-01-25T02:03:09.600Z,0.90
2018-01-25T02:05:37.779Z,1.20
2018-01-25T02:08:05.992Z,0.93
2018-01-25T02:10:34.962Z,0.90
2018-01-25T02:13:03.152Z,0.90
2018-01-25T02:15:31.327Z,1.00
2018-01-25T02:17:59.514Z,1.00
2018-01-25T02:20:28.434Z,1.10
2018-01-25T02:22:56.619Z,1.48
2018-01-25T02:25:24.815Z,0.90
2018-01-25T02:27:52.986Z,1.48
2018-01-25T02:30:21.160Z,1.00
2018-01-25T02:32:49.327Z,1.02
2018-01-25T02:35:17.506Z,1.02
2018-01-25T02:37:45.650Z,1.27
2018-01-25T02:40:14.859Z,1.48
2018-01-25T02:42:43.023Z,0.90
2018-01-25T02:45:11.185Z,1.10
2018-01-25T02:47:39.432Z,1.48
2018-01-25T02:50:08.427Z,0.95
2018-01-25T02:52:36.564Z,0.90
2018-01-25T02:55:04.764Z,0.90
2018-01-25T02:57:33.695Z,0.90
2018-01-25T03:00:01.898Z,0.90
2018-01-25T03:02:30.075Z,1.17
2018-01-25T03:04:58.238Z,1.00
2018-01-25T03:07:26.387Z,1.00
2018-01-25T03:09:54.585Z,1.35
2018-01-25T03:12:23.035Z,1.25
2018-01-25T03:14:51.186Z,1.37
2018-01-25T03:17:19.342Z,0.90
2018-01-25T03:19:48.250Z,0.90
2018-01-25T03:22:16.441Z,1.00
2018-01-25T03:24:44.579Z,1.87
2018-01-25T03:27:13.525Z,1.00
2018-01-25T03:29:41.696Z,1.90
2018-01-25T03:32:09.887Z,1.52
2018-01-25T03:34:38.025Z,1.20
2018-01-25T03:37:06.237Z,1.27
2018-01-25T03:39:34.382Z,1.70
2018-01-25T03:42:02.666Z,1.23
2018-01-25T03:44:30.921Z,1.20
2018-01-25T03:46:59.094Z,2.75
2018-01-25T03:49:27.251Z,1.20
2018-01-25T03:51:55.381Z,1.08
2018-01-25T03:54:23.519Z,1.90
2018-01-25T03:56:51.685Z,2.00
2018-01-25T03:59:19.833Z,1.30
2018-01-25T04:01:48.006Z,2.33
2018-01-25T04:04:16.175Z,1.90
2018-01-25T04:06:44.614Z,1.27
2018-01-25T04:09:12.770Z,1.50
2018-01-25T04:11:40.920Z,1.52
2018-01-25T04:14:09.077Z,1.58
2018-01-25T04:16:37.223Z,1.95
2018-01-25T04:19:05.368Z,1.10
2018-01-25T04:21:33.517Z,1.37
2018-01-25T04:24:01.986Z,1.50
2018-01-25T04:26:30.392Z,1.50
2018-01-25T04:28:58.582Z,2.42
2018-01-25T04:31:26.717Z,2.15
2018-01-25T04:33:54.865Z,1.75
2018-01-25T04:36:23.775Z,1.55
2018-01-25T04:38:51.918Z,2.22
2018-01-25T04:41:20.869Z,1.30
2018-01-25T04:43:49.006Z,1.67
2018-01-25T04:46:17.195Z,1.45
2018-01-25T04:48:45.346Z,2.35
2018-01-25T04:51:13.567Z,1.85
2018-01-25T04:53:41.732Z,1.50
2018-01-25T04:56:09.910Z,1.95
2018-01-25T04:58:38.057Z,2.10
2018-01-25T05:01:06.223Z,2.30
2018-01-25T05:03:34.379Z,1.62
2018-01-25T05:06:02.554Z,2.75
2018-01-25T05:08:30.749Z,1.60
2018-01-25T05:10:58.901Z,1.80
2018-01-25T05:13:27.056Z,2.65
2018-01-25T05:15:55.990Z,2.87
2018-01-25T05:18:24.134Z,1.73
2018-01-25T05:20:52.427Z,1.55
2018-01-25T05:23:20.674Z,1.75
2018-01-25T05:25:49.663Z,1.52
2018-01-25T05:28:18.607Z,3.35
2018-01-25T05:30:46.738Z,1.95
2018-01-25T05:33:14.871Z,1.85
2018-01-25T05:35:43.011Z,2.05
2018-01-25T05:38:11.174Z,3.00
2018-01-25T05:40:39.345Z,4.45
2018-01-25T05:43:07.500Z,2.35
2018-01-25T05:45:36.443Z,2.80
2018-01-25T05:48:04.697Z,1.90
2018-01-25T05:50:32.925Z,3.35
2018-01-25T05:53:01.845Z,3.37
2018-01-25T05:55:30.006Z,2.47
2018-01-25T05:57:58.165Z,2.72
2018-01-25T06:00:27.087Z,3.30
2018-01-25T06:02:55.238Z,2.08
2018-01-25T06:05:24.145Z,4.57
2018-01-25T06:07:52.367Z,3.33
2018-01-25T06:10:20.540Z,1.85
2018-01-25T06:12:48.738Z,2.42
2018-01-25T06:15:16.914Z,2.40
2018-01-25T06:17:45.822Z,1.80
2018-01-25T06:20:13.972Z,2.50
2018-01-25T06:22:42.917Z,2.00
2018-01-25T06:25:11.074Z,2.53
2018-01-25T06:27:39.228Z,6.37
2018-01-25T06:30:07.395Z,2.20
2018-01-25T06:32:35.538Z,4.80
2018-01-25T06:35:03.769Z,5.00
2018-01-25T06:37:31.912Z,3.17
2018-01-25T06:40:00.067Z,2.65
2018-01-25T06:42:28.231Z,4.18
2018-01-25T06:44:56.427Z,3.95
2018-01-25T06:47:24.601Z,2.50
2018-01-25T06:49:53.533Z,4.25
2018-01-25T06:52:21.679Z,3.87
2018-01-25T06:54:49.876Z,4.28
2018-01-25T06:57:18.220Z,5.12
2018-01-25T06:59:47.157Z,2.65
2018-01-25T07:02:15.370Z,6.87
2018-01-25T07:04:44.279Z,2.70
2018-01-25T07:07:12.530Z,3.17
2018-01-25T07:09:41.444Z,5.80
2018-01-25T07:12:09.630Z,2.40
2018-01-25T07:14:37.800Z,3.95
2018-01-25T07:17:08.290Z,2.90
2018-01-25T07:19:37.229Z,3.65
2018-01-25T07:22:05.409Z,5.75
2018-01-25T07:24:33.625Z,4.75
2018-01-25T07:27:01.770Z,4.32
2018-01-25T07:29:29.949Z,3.08
2018-01-25T07:31:58.100Z,3.55
2018-01-25T07:34:26.373Z,3.22
2018-01-25T07:36:54.524Z,3.37
2018-01-25T07:39:22.756Z,3.60
2018-01-25T07:41:50.924Z,3.10
2018-01-25T07:44:19.054Z,3.53
2018-01-25T07:46:47.220Z,3.37
2018-01-25T07:49:15.459Z,5.20
2018-01-25T07:51:43.607Z,3.62
2018-01-25T07:54:11.734Z,3.47
2018-01-25T07:56:39.914Z,4.57
2018-01-25T07:59:08.062Z,3.30
2018-01-25T08:01:37.017Z,4.87
2018-01-25T08:04:05.475Z,5.97
2018-01-25T08:06:33.684Z,4.20
2018-01-25T08:09:01.861Z,5.82
2018-01-25T08:11:30.043Z,4.12
2018-01-25T08:14:00.106Z,4.35
2018-01-25T08:16:33.685Z,6.25
2018-01-25T08:19:01.870Z,5.15
2018-01-25T08:21:30.057Z,3.95
2018-01-25T08:23:58.250Z,6.22
2018-01-25T08:26:26.402Z,5.97
2018-01-25T08:28:54.543Z,3.55
2018-01-25T08:31:22.716Z,7.53
2018-01-25T08:33:50.871Z,6.25
2018-01-25T08:36:19.807Z,5.15
2018-01-25T08:38:48.833Z,4.28
2018-01-25T08:41:17.028Z,7.15
2018-01-25T08:43:46.096Z,6.85
2018-01-25T08:46:14.243Z,7.10
2018-01-25T08:48:42.417Z,6.32
2018-01-25T08:51:10.551Z,4.18
2018-01-25T08:53:38.760Z,3.53
2018-01-25T08:56:06.950Z,4.22
2018-01-25T08:58:35.088Z,5.25
2018-01-25T09:01:03.239Z,6.35
2018-01-25T09:03:32.164Z,5.95
2018-01-25T09:06:00.348Z,5.85
2018-01-25T09:08:28.576Z,7.50
2018-01-25T09:10:56.733Z,4.90
2018-01-25T09:13:24.876Z,4.80
2018-01-25T09:15:53.059Z,3.40
2018-01-25T09:18:21.230Z,3.83
2018-01-25T09:20:49.385Z,7.15
2018-01-25T09:23:17.646Z,6.50
2018-01-25T09:25:45.842Z,5.28
2018-01-25T09:28:14.022Z,5.55
2018-01-25T09:30:42.181Z,7.25
2018-01-25T09:33:10.326Z,4.32
2018-01-25T09:35:38.486Z,5.32
2018-01-25T09:38:06.648Z,4.57
2018-01-25T09:40:34.871Z,3.75
2018-01-25T09:43:03.034Z,5.12
2018-01-25T09:45:31.297Z,4.25
2018-01-25T09:47:59.471Z,7.60
2018-01-25T09:50:27.644Z,5.97
2018-01-25T09:52:55.904Z,4.50
2018-01-25T09:55:24.178Z,4.28
2018-01-25T09:57:52.475Z,4.10
2018-01-25T10:00:20.642Z,8.50
2018-01-25T10:15:08.356Z,6.82
2018-01-25T10:17:36.498Z,4.43
2018-01-25T10:20:04.710Z,4.60
2018-01-25T10:22:35.847Z,6.03
2018-01-25T10:25:04.192Z,4.78
2018-01-25T10:27:32.413Z,3.67
2018-01-25T10:30:01.433Z,3.87
2018-01-25T10:32:29.536Z,4.45
2018-01-25T10:34:57.705Z,6.00
2018-01-25T10:37:25.936Z,7.28
2018-01-25T10:39:54.087Z,3.90
2018-01-25T10:42:22.262Z,5.07
2018-01-25T10:44:51.181Z,4.18
2018-01-25T10:47:35.663Z,5.95
2018-01-25T10:50:03.831Z,5.85
2018-01-25T10:52:33.032Z,5.30
2018-01-25T10:58:20.315Z,4.00
2018-01-25T11:01:02.539Z,5.75
2018-01-25T11:03:31.512Z,6.10
2018-01-25T11:05:59.733Z,3.65
2018-01-25T11:11:37.969Z,7.50
2018-01-25T11:14:07.085Z,4.97
2018-01-25T11:16:36.424Z,4.70
2018-01-25T11:19:04.621Z,4.37
2018-01-25T11:21:37.849Z,5.05
2018-01-25T11:24:06.085Z,4.35
2018-01-25T11:26:34.898Z,4.53
2018-01-25T11:29:03.824Z,4.07
2018-01-25T11:31:31.997Z,4.00
2018-01-25T11:34:00.274Z,4.60
2018-01-25T11:36:28.412Z,5.30
2018-01-25T11:38:57.311Z,7.60
2018-01-25T11:41:25.494Z,4.75
2018-01-25T11:43:53.709Z,5.28
2018-01-25T11:46:21.986Z,7.90
2018-01-25T11:48:50.155Z,4.80
2018-01-25T11:51:18.348Z,4.35
2018-01-25T11:53:46.452Z,4.90
2018-01-25T11:56:14.602Z,4.10
2018-01-25T11:58:43.528Z,6.00
2018-01-25T12:01:11.692Z,4.03
2018-01-25T12:03:39.868Z,7.70
2018-01-25T12:06:08.034Z,4.35
2018-01-25T12:08:36.202Z,5.45
2018-01-25T12:11:04.346Z,5.12
2018-01-25T12:13:32.756Z,4.70
2018-01-25T12:16:00.969Z,5.00
2018-01-25T12:18:29.154Z,7.87
2018-01-25T12:20:57.593Z,5.57
2018-01-25T12:23:25.871Z,5.50
2018-01-25T12:25:54.838Z,4.62
2018-01-25T12:28:23.746Z,5.07
2018-01-25T12:30:51.984Z,6.25
2018-01-25T12:33:20.126Z,5.60
2018-01-25T12:35:48.323Z,4.25
2018-01-25T12:38:16.577Z,7.32
2018-01-25T12:40:44.869Z,7.12
2018-01-25T12:43:13.018Z,4.90
2018-01-25T12:45:41.155Z,4.70
2018-01-25T12:48:09.337Z,5.85
2018-01-25T12:50:37.589Z,6.05
2018-01-25T12:53:05.882Z,8.23
2018-01-25T12:55:34.094Z,5.43
2018-01-25T12:58:02.307Z,9.07
2018-01-25T13:00:30.460Z,9.23
2018-01-25T13:02:58.682Z,5.50
2018-01-25T13:05:26.878Z,5.40
2018-01-25T13:07:55.127Z,6.12
2018-01-25T13:10:23.266Z,5.35
2018-01-25T13:12:51.454Z,7.82
2018-01-25T13:15:20.450Z,7.80
2018-01-25T13:17:49.380Z,5.97
2018-01-25T13:20:17.557Z,7.53
2018-01-25T13:22:45.704Z,9.40
2018-01-25T13:25:13.852Z,7.03
2018-01-25T13:27:42.795Z,5.43
2018-01-25T13:30:11.154Z,7.57
2018-01-25T13:32:39.343Z,9.20
2018-01-25T13:35:07.442Z,8.63
2018-01-25T13:37:35.803Z,5.40
2018-01-25T13:40:03.942Z,5.40
2018-01-25T13:42:32.250Z,7.28
2018-01-25T13:45:00.533Z,6.15
2018-01-25T13:47:28.718Z,5.68
2018-01-25T13:49:56.895Z,8.07
2018-01-25T13:52:30.661Z,6.35
2018-01-25T13:54:58.960Z,7.90
2018-01-25T13:57:27.183Z,6.03
2018-01-25T13:59:55.411Z,6.65
2018-01-25T14:02:23.562Z,6.75
2018-01-25T14:04:51.753Z,8.70
2018-01-25T14:07:19.916Z,6.03
2018-01-25T14:09:48.089Z,10.80
2018-01-25T14:12:16.285Z,10.40
2018-01-25T14:14:44.416Z,6.62
2018-01-25T14:17:12.723Z,5.35
2018-01-25T14:19:40.873Z,7.57
2018-01-25T14:22:09.080Z,7.30
2018-01-25T14:24:37.224Z,5.62
2018-01-25T14:27:05.591Z,6.70
2018-01-25T14:29:33.820Z,5.65
2018-01-25T14:32:02.772Z,5.57
2018-01-25T14:34:31.134Z,7.57
2018-01-25T14:36:59.412Z,6.35
2018-01-25T14:39:27.772Z,5.93
2018-01-25T14:41:56.136Z,5.03
2018-01-25T14:44:24.360Z,5.50
2018-01-25T14:46:52.584Z,6.62
2018-01-25T14:49:20.819Z,6.85
2018-01-25T14:51:48.985Z,9.80
2018-01-25T14:54:17.466Z,4.72
2018-01-25T14:56:45.761Z,5.10
2018-01-25T14:59:13.911Z,6.05
2018-01-25T15:01:42.204Z,7.57
2018-01-25T15:04:10.371Z,10.98
2018-01-25T15:06:39.630Z,5.62
2018-01-25T15:09:07.799Z,6.78
2018-01-25T15:11:35.973Z,6.85
2018-01-25T15:14:04.175Z,7.65
2018-01-25T15:16:32.326Z,8.10
2018-01-25T15:19:00.614Z,4.62
2018-01-25T15:21:29.592Z,7.03
2018-01-25T15:23:57.789Z,8.25
2018-01-25T15:26:26.016Z,8.38
2018-01-25T15:28:54.184Z,10.55
2018-01-25T15:31:22.344Z,7.00
2018-01-25T15:33:51.269Z,5.78
2018-01-25T15:36:19.470Z,10.55
2018-01-25T15:38:47.696Z,6.00
2018-01-25T15:41:15.902Z,8.00
2018-01-25T15:43:44.112Z,6.32
2018-01-25T15:46:13.214Z,6.03
2018-01-25T15:48:42.215Z,7.28
2018-01-25T15:51:11.169Z,5.82
2018-01-25T15:53:39.336Z,5.12
2018-01-25T15:56:07.505Z,5.70
2018-01-25T15:58:35.632Z,7.03
2018-01-25T16:01:04.555Z,5.82
2018-01-25T16:03:32.725Z,7.82
2018-01-25T16:06:01.064Z,5.28
2018-01-25T16:08:29.953Z,5.97
2018-01-25T16:10:58.925Z,6.70
2018-01-25T16:13:27.155Z,6.75
2018-01-25T16:15:55.304Z,5.85
2018-01-25T16:18:23.537Z,8.55
2018-01-25T16:20:51.684Z,5.28
2018-01-25T16:23:19.870Z,6.05
2018-01-25T16:25:48.077Z,5.12
2018-01-25T16:28:22.088Z,6.80
2018-01-25T16:30:51.026Z,5.40
2018-01-25T16:33:20.029Z,5.10
2018-01-25T16:35:48.280Z,8.95
2018-01-25T16:38:16.458Z,5.97
2018-01-25T16:40:44.675Z,6.62
2018-01-25T16:43:12.837Z,5.30
2018-01-25T16:45:41.020Z,7.40
2018-01-25T16:48:09.216Z,5.35
2018-01-25T16:50:38.552Z,6.22
2018-01-25T16:53:06.703Z,5.57
2018-01-25T16:55:34.868Z,4.82
2018-01-25T16:58:03.945Z,8.23
2018-01-25T17:00:32.133Z,4.95
2018-01-25T17:03:01.064Z,6.75
2018-01-25T17:05:29.502Z,6.05
2018-01-25T17:07:58.481Z,6.22
2018-01-25T17:10:26.635Z,8.10
2018-01-25T17:12:54.815Z,7.60
2018-01-25T17:15:22.928Z,7.20
2018-01-25T17:17:51.077Z,5.85
2018-01-25T17:20:20.166Z,4.05
2018-01-25T17:22:48.372Z,4.80
2018-01-25T17:25:16.518Z,6.78
2018-01-25T17:27:45.482Z,6.18
2018-01-25T17:30:13.685Z,5.82
2018-01-25T17:32:41.950Z,6.85
2018-01-25T17:35:10.112Z,5.43
2018-01-25T17:37:38.362Z,7.22
2018-01-25T17:40:06.522Z,5.90
2018-01-25T17:42:34.708Z,6.87
2018-01-25T17:45:02.873Z,5.87
2018-01-25T17:47:31.043Z,7.15
2018-01-25T17:49:59.285Z,7.85
2018-01-25T17:52:28.246Z,9.57
2018-01-25T17:54:56.406Z,8.57
2018-01-25T17:57:24.577Z,7.18
2018-01-25T17:59:52.728Z,6.70
2018-01-25T18:02:20.899Z,6.18
2018-01-25T18:04:49.061Z,5.93
2018-01-25T18:07:17.240Z,8.27
2018-01-25T18:09:45.467Z,6.55
2018-01-25T18:12:13.762Z,6.50
2018-01-25T18:14:42.655Z,5.97
2018-01-25T18:17:10.927Z,7.90
2018-01-25T18:19:39.874Z,6.28
2018-01-25T18:22:08.144Z,8.35
2018-01-25T18:24:36.381Z,7.15
2018-01-25T18:27:04.646Z,8.45
2018-01-25T18:29:33.856Z,5.50
2018-01-25T18:32:02.076Z,6.72
2018-01-25T18:34:30.320Z,6.37
2018-01-25T18:36:58.480Z,8.43
2018-01-25T18:39:26.741Z,7.85
2018-01-25T18:41:54.899Z,6.30
2018-01-25T18:44:24.915Z,6.72
2018-01-25T18:46:53.081Z,7.15
2018-01-25T18:49:22.028Z,5.93
2018-01-25T18:51:50.199Z,6.60
2018-01-25T18:54:18.342Z,7.87
2018-01-25T18:56:46.540Z,7.28
2018-01-25T18:59:14.727Z,6.25
2018-01-25T19:01:42.900Z,6.00
2018-01-25T19:04:11.081Z,8.82
2018-01-25T19:06:39.259Z,7.57
2018-01-25T19:09:07.527Z,8.50
2018-01-25T19:11:35.722Z,10.70
2018-01-25T19:14:04.747Z,8.02
2018-01-25T19:16:33.017Z,8.93
2018-01-25T19:19:01.239Z,12.25
2018-01-25T19:21:29.413Z,7.55
2018-01-25T19:26:32.447Z,7.57
2018-01-25T19:29:00.588Z,6.78
2018-01-25T19:31:28.839Z,8.20
2018-01-25T19:33:57.095Z,8.75
2018-01-25T19:36:26.054Z,9.75
2018-01-25T19:38:54.293Z,9.30
2018-01-25T19:41:22.473Z,8.68
2018-01-25T19:43:50.646Z,10.02
2018-01-25T19:46:18.983Z,12.02
2018-01-25T19:48:52.603Z,11.52
2018-01-25T19:51:20.816Z,12.60
2018-01-25T19:53:49.012Z,9.18
2018-01-25T19:56:18.424Z,9.90
2018-01-25T19:58:46.635Z,11.70
2018-01-25T20:01:14.951Z,13.18
2018-01-25T20:03:43.196Z,10.65
2018-01-25T20:06:11.705Z,11.38
2018-01-25T20:08:41.256Z,9.82
2018-01-25T20:11:09.507Z,9.00
2018-01-25T20:13:38.496Z,10.10
2018-01-25T20:16:07.485Z,11.20
2018-01-25T20:18:39.449Z,11.38
2018-01-25T20:21:08.594Z,10.88
2018-01-25T20:23:36.814Z,10.93
2018-01-25T20:26:05.934Z,10.57
2018-01-25T20:28:34.165Z,12.90
2018-01-25T20:31:02.359Z,11.12
2018-01-25T20:33:31.338Z,10.35
2018-01-25T20:36:00.298Z,10.57
2018-01-25T20:38:29.490Z,11.52
2018-01-25T20:40:57.800Z,11.27
2018-01-25T20:43:26.294Z,12.00
2018-01-25T20:45:54.625Z,11.25
2018-01-25T20:48:22.914Z,10.00
2018-01-25T20:50:51.114Z,9.57
2018-01-25T20:53:20.088Z,8.77
2018-01-25T20:55:48.278Z,9.15
2018-01-25T20:58:17.296Z,10.27
2018-01-25T21:00:45.500Z,10.63
2018-01-25T21:03:13.673Z,9.07
2018-01-25T21:05:41.859Z,8.65
2018-01-25T21:08:10.106Z,10.18
2018-01-25T21:10:38.339Z,12.18
2018-01-25T21:13:07.365Z,8.75
2018-01-25T21:15:35.548Z,9.10
2018-01-25T21:18:03.816Z,8.25
2018-01-25T21:20:32.121Z,10.63
2018-01-25T21:23:00.370Z,8.20
2018-01-25T21:25:29.339Z,8.07
2018-01-25T21:27:57.639Z,7.70
2018-01-25T21:30:25.827Z,10.93
2018-01-25T21:32:54.000Z,10.82
2018-01-25T21:35:22.246Z,7.70
2018-01-25T21:37:50.488Z,9.40
2018-01-25T21:40:18.730Z,7.95
2018-01-25T21:42:46.923Z,11.40
2018-01-25T21:45:15.139Z,10.00
2018-01-25T21:47:43.434Z,9.05
2018-01-25T21:50:11.607Z,8.52
2018-01-25T21:52:39.810Z,13.48
2018-01-25T21:55:08.002Z,7.40
2018-01-25T21:57:36.279Z,8.68
2018-01-25T22:00:04.505Z,7.72
2018-01-25T22:02:32.781Z,11.18
2018-01-25T22:05:01.012Z,8.57
2018-01-25T22:07:29.229Z,9.07
2018-01-25T22:09:57.506Z,8.43
2018-01-25T22:12:25.722Z,11.00
2018-01-25T22:14:53.909Z,7.85
2018-01-25T22:17:22.098Z,9.68
2018-01-25T22:19:50.726Z,9.73
2018-01-25T22:22:18.961Z,8.07
2018-01-25T22:24:47.285Z,8.50
2018-01-25T22:27:15.624Z,8.25
2018-01-25T22:29:43.855Z,9.70
2018-01-25T22:32:12.069Z,8.80
2018-01-25T22:34:40.230Z,8.52
2018-01-25T22:37:08.498Z,8.48
2018-01-25T22:39:37.417Z,9.32
2018-01-25T22:42:05.582Z,7.30
2018-01-25T22:44:33.736Z,9.10
2018-01-25T22:47:02.785Z,7.22
2018-01-25T22:49:30.957Z,8.35
2018-01-25T22:51:59.090Z,8.48
2018-01-25T22:54:27.261Z,9.50
2018-01-25T22:56:55.532Z,7.50
2018-01-25T22:59:24.442Z,9.65
2018-01-25T23:01:52.665Z,8.90
2018-01-25T23:04:21.044Z,8.57
2018-01-25T23:06:49.350Z,9.45
2018-01-25T23:09:17.608Z,8.23
2018-01-25T23:11:46.555Z,9.68
2018-01-25T23:14:14.802Z,9.05
2018-01-25T23:16:43.708Z,8.77
2018-01-25T23:19:11.875Z,8.23
2018-01-25T23:21:40.101Z,7.53
2018-01-25T23:24:09.038Z,7.28
2018-01-25T23:26:37.368Z,9.50
2018-01-25T23:29:05.919Z,9.50
2018-01-25T23:31:34.084Z,7.82
2018-01-25T23:34:02.251Z,7.60
2018-01-25T23:36:30.423Z,8.02
2018-01-25T23:38:58.577Z,8.85
2018-01-25T23:41:26.737Z,8.57
2018-01-25T23:43:54.976Z,9.63
2018-01-25T23:46:23.121Z,7.90
2018-01-25T23:48:51.281Z,7.82
2018-01-25T23:51:19.479Z,8.55
2018-01-25T23:53:47.665Z,8.77
2018-01-25T23:56:15.868Z,7.37
2018-01-25T23:58:44.800Z,8.25
